Time;durP1;ratioP1;P1;durP2;ratioP2;P2;SDS_P1;SDS_P2;PMS_P1;PMS_P2;Temp;Humidity;BMP_temperature;BMP_pressure;BME280_temperature;BME280_humidity;BME280_pressure;Samples;Min_cycle;Max_cycle;Signal;HPM_P1;HPM_P2
2022/04/06 00:02:24;;;;;;;18.77;8.23;;;;;;;;;;6223209;22;20468;-92
2022/04/06 00:04:52;;;;;;;18.98;9.00;;;;;;;;;;6224840;22;20031;-91
2022/04/06 00:07:20;;;;;;;17.42;8.88;;;;;;;;;;6258458;22;20070;-92
2022/04/06 00:09:48;;;;;;;18.42;8.85;;;;;;;;;;6233142;22;20267;-91
2022/04/06 00:12:16;;;;;;;17.85;8.27;;;;;;;;;;6222524;22;20024;-90
2022/04/06 00:14:45;;;;;;;18.05;8.43;;;;;;;;;;6250681;22;20024;-90
2022/04/06 00:17:13;;;;;;;19.88;8.20;;;;;;;;;;6224127;22;20062;-91
2022/04/06 00:19:41;;;;;;;22.25;9.88;;;;;;;;;;6223808;22;20020;-91
2022/04/06 00:22:09;;;;;;;20.75;8.55;;;;;;;;;;6223404;22;20011;-91
2022/04/06 00:24:37;;;;;;;21.80;9.20;;;;;;;;;;6225520;22;20024;-91
2022/04/06 00:27:06;;;;;;;16.38;7.43;;;;;;;;;;6251128;22;20046;-91
2022/04/06 00:29:35;;;;;;;14.82;7.10;;;;;;;;;;6225539;22;20026;-91
2022/04/06 00:32:17;;;;;;;12.23;6.03;;;;;;;;;;6265319;22;20327;-91
2022/04/06 00:37:30;;;;;;;11.10;4.93;;;;;;;;;;6224899;22;20016;-91
2022/04/06 00:39:58;;;;;;;8.15;4.05;;;;;;;;;;6225502;22;20388;-91
2022/04/06 00:42:26;;;;;;;10.07;4.32;;;;;;;;;;6201506;22;20027;-91
2022/04/06 00:44:54;;;;;;;8.02;4.20;;;;;;;;;;6226252;22;20507;-91
2022/04/06 00:47:22;;;;;;;7.75;3.78;;;;;;;;;;6259340;22;20032;-91
2022/04/06 00:49:50;;;;;;;8.40;3.50;;;;;;;;;;6198958;22;20402;-91
2022/04/06 00:52:20;;;;;;;8.35;4.07;;;;;;;;;;6224150;22;20030;-91
2022/04/06 00:54:47;;;;;;;10.02;3.85;;;;;;;;;;6261196;22;20024;-91
2022/04/06 00:57:16;;;;;;;8.55;3.95;;;;;;;;;;6225571;22;20330;-91
2022/04/06 00:59:56;;;;;;;8.55;3.70;;;;;;;;;;6239295;22;20029;-90
2022/04/06 01:02:25;;;;;;;11.13;4.20;;;;;;;;;;6260966;22;20020;-91
2022/04/06 01:04:53;;;;;;;9.52;3.83;;;;;;;;;;6202238;22;20015;-91
2022/04/06 01:07:22;;;;;;;8.43;4.00;;;;;;;;;;6224444;22;20093;-90
2022/04/06 01:09:50;;;;;;;9.15;4.00;;;;;;;;;;6226369;22;20065;-91
2022/04/06 01:12:21;;;;;;;8.38;3.97;;;;;;;;;;6235521;22;20015;-91
2022/04/06 01:14:49;;;;;;;8.15;4.00;;;;;;;;;;6261875;22;20020;-90
2022/04/06 01:17:16;;;;;;;9.48;3.85;;;;;;;;;;6225318;22;20473;-91
2022/04/06 01:19:47;;;;;;;8.73;3.70;;;;;;;;;;6225402;22;20027;-90
2022/04/06 01:22:17;;;;;;;7.13;3.80;;;;;;;;;;6225953;22;20046;-91
2022/04/06 01:24:46;;;;;;;8.25;4.13;;;;;;;;;;6226058;22;20022;-91
2022/04/06 01:27:15;;;;;;;8.35;3.90;;;;;;;;;;6259290;22;20061;-91
2022/04/06 01:29:43;;;;;;;9.80;3.53;;;;;;;;;;6259626;22;20023;-91
2022/04/06 01:32:16;;;;;;;8.82;3.65;;;;;;;;;;6224813;22;20015;-91
2022/04/06 01:34:47;;;;;;;6.63;3.78;;;;;;;;;;6226763;22;20077;-90
2022/04/06 01:37:15;;;;;;;7.28;3.38;;;;;;;;;;6248682;22;20441;-91
2022/04/06 01:39:45;;;;;;;7.82;4.20;;;;;;;;;;6199060;22;20106;-91
2022/04/06 01:42:15;;;;;;;9.45;3.80;;;;;;;;;;6259292;22;20365;-91
2022/04/06 01:44:44;;;;;;;7.53;3.50;;;;;;;;;;6263552;22;20023;-91
2022/04/06 01:47:17;;;;;;;6.15;3.45;;;;;;;;;;6277451;22;20075;-91
2022/04/06 01:52:33;;;;;;;5.85;3.08;;;;;;;;;;6252730;22;20022;-91
2022/04/06 01:55:07;;;;;;;6.50;3.28;;;;;;;;;;6205543;22;20444;-91
2022/04/06 01:57:35;;;;;;;6.55;3.60;;;;;;;;;;6222931;22;20020;-91
2022/04/06 02:00:15;;;;;;;7.13;2.97;;;;;;;;;;6222942;22;20056;-91
2022/04/06 02:02:47;;;;;;;7.85;3.22;;;;;;;;;;6222667;22;20011;-91
2022/04/06 02:05:16;;;;;;;7.63;3.53;;;;;;;;;;6238059;22;20090;-91
2022/04/06 02:07:43;;;;;;;7.55;3.42;;;;;;;;;;6258603;22;20024;-91
2022/04/06 02:10:11;;;;;;;6.85;3.38;;;;;;;;;;6198354;22;20103;-91
2022/04/06 02:12:39;;;;;;;7.45;3.45;;;;;;;;;;6248293;22;20023;-91
2022/04/06 02:15:10;;;;;;;5.07;2.67;;;;;;;;;;6250935;22;20024;-91
2022/04/06 02:17:37;;;;;;;6.03;3.03;;;;;;;;;;6225134;22;20065;-91
2022/04/06 02:20:05;;;;;;;6.85;2.90;;;;;;;;;;6200862;22;20106;-91
2022/04/06 02:22:32;;;;;;;6.78;3.08;;;;;;;;;;6224349;22;20023;-91
2022/04/06 02:25:02;;;;;;;5.63;2.90;;;;;;;;;;6225300;22;20019;-91
2022/04/06 02:27:28;;;;;;;4.68;2.45;;;;;;;;;;6260228;22;20073;-91
2022/04/06 02:29:56;;;;;;;7.50;3.10;;;;;;;;;;6235815;22;20098;-91
2022/04/06 02:32:24;;;;;;;8.93;2.80;;;;;;;;;;6234526;22;20011;-90
2022/04/06 02:34:53;;;;;;;5.35;2.85;;;;;;;;;;6226329;22;20023;-90
2022/04/06 02:37:22;;;;;;;5.32;2.65;;;;;;;;;;6225240;22;20024;-91
2022/04/06 02:39:50;;;;;;;7.30;2.63;;;;;;;;;;6223418;22;20740;-91
2022/04/06 02:42:18;;;;;;;5.90;2.67;;;;;;;;;;6233979;22;20043;-91
2022/04/06 02:44:46;;;;;;;5.13;2.38;;;;;;;;;;6262561;22;20094;-91
2022/04/06 02:47:14;;;;;;;6.55;2.30;;;;;;;;;;6224733;22;20024;-91
2022/04/06 02:49:42;;;;;;;6.75;2.63;;;;;;;;;;6261083;22;20023;-91
2022/04/06 02:52:10;;;;;;;5.95;2.80;;;;;;;;;;6225022;22;20099;-91
2022/04/06 02:54:39;;;;;;;5.88;3.05;;;;;;;;;;6226057;22;20039;-91
2022/04/06 02:57:09;;;;;;;8.55;2.58;;;;;;;;;;6223511;22;20024;-91
2022/04/06 02:59:39;;;;;;;4.85;2.78;;;;;;;;;;6223193;22;20030;-91
2022/04/06 03:02:06;;;;;;;6.70;2.95;;;;;;;;;;6258213;22;20026;-91
2022/04/06 03:04:35;;;;;;;9.82;3.42;;;;;;;;;;6225114;22;20031;-91
2022/04/06 03:07:07;;;;;;;6.72;3.35;;;;;;;;;;6222962;22;20034;-91
2022/04/06 03:09:34;;;;;;;10.23;3.63;;;;;;;;;;6223011;22;20030;-91
2022/04/06 03:12:05;;;;;;;8.02;3.30;;;;;;;;;;6258208;22;20019;-91
2022/04/06 03:14:34;;;;;;;6.90;3.53;;;;;;;;;;6228209;22;20023;-91
2022/04/06 03:17:03;;;;;;;11.23;4.60;;;;;;;;;;6224561;22;20020;-91
2022/04/06 03:19:30;;;;;;;8.10;4.07;;;;;;;;;;6199823;22;20063;-91
2022/04/06 03:21:58;;;;;;;9.18;4.20;;;;;;;;;;6224409;22;20028;-91
2022/04/06 03:24:29;;;;;;;11.15;4.38;;;;;;;;;;6226179;22;20027;-91
2022/04/06 03:26:58;;;;;;;11.30;4.93;;;;;;;;;;6249696;22;20486;-91
2022/04/06 03:29:25;;;;;;;9.23;4.32;;;;;;;;;;6223699;22;20043;-91
2022/04/06 03:31:53;;;;;;;13.20;4.88;;;;;;;;;;6200159;22;20016;-91
2022/04/06 03:34:20;;;;;;;12.52;5.50;;;;;;;;;;6200889;22;20030;-91
2022/04/06 03:36:49;;;;;;;10.85;5.65;;;;;;;;;;6222696;22;20042;-90
2022/04/06 03:39:17;;;;;;;11.52;5.45;;;;;;;;;;6198517;22;20027;-91
2022/04/06 03:41:44;;;;;;;12.40;6.13;;;;;;;;;;6197966;22;20020;-91
2022/04/06 03:44:14;;;;;;;10.75;5.82;;;;;;;;;;6249142;22;20034;-91
2022/04/06 03:46:43;;;;;;;11.27;6.00;;;;;;;;;;6198879;22;20028;-91
2022/04/06 03:49:11;;;;;;;12.65;6.65;;;;;;;;;;6225362;22;20102;-91
2022/04/06 03:51:38;;;;;;;15.35;6.45;;;;;;;;;;6224917;22;20068;-91
2022/04/06 03:54:07;;;;;;;18.35;6.75;;;;;;;;;;6202480;22;20034;-91
2022/04/06 03:56:38;;;;;;;18.10;6.00;;;;;;;;;;6252996;22;20444;-91
2022/04/06 03:59:04;;;;;;;18.13;7.72;;;;;;;;;;6261853;22;20028;-91
2022/04/06 04:01:35;;;;;;;18.42;8.20;;;;;;;;;;6201654;22;20034;-91
2022/04/06 04:04:04;;;;;;;17.75;6.85;;;;;;;;;;6262361;22;20043;-91
2022/04/06 04:06:33;;;;;;;18.67;7.00;;;;;;;;;;6247384;22;20023;-91
2022/04/06 04:09:00;;;;;;;16.58;7.57;;;;;;;;;;6254409;22;20026;-91
2022/04/06 04:11:30;;;;;;;18.55;7.43;;;;;;;;;;6253277;22;20448;-91
2022/04/06 04:13:58;;;;;;;22.92;8.43;;;;;;;;;;6237788;22;20000;-91
2022/04/06 04:16:26;;;;;;;15.05;7.47;;;;;;;;;;6200757;22;20050;-91
2022/04/06 04:18:54;;;;;;;20.80;7.72;;;;;;;;;;6200135;22;20081;-91
2022/04/06 04:21:32;;;;;;;20.30;7.30;;;;;;;;;;6225144;22;20019;-91
2022/04/06 04:24:03;;;;;;;22.20;9.02;;;;;;;;;;6226293;22;20039;-91
2022/04/06 04:26:31;;;;;;;19.15;7.78;;;;;;;;;;6224895;22;20142;-91
2022/04/06 04:28:58;;;;;;;24.08;8.55;;;;;;;;;;6224093;22;20069;-91
2022/04/06 04:31:26;;;;;;;20.77;9.05;;;;;;;;;;6199761;22;20515;-91
2022/04/06 04:33:58;;;;;;;25.15;10.25;;;;;;;;;;6261874;22;20738;-91
2022/04/06 04:36:28;;;;;;;19.65;9.27;;;;;;;;;;6224604;22;20077;-91
2022/04/06 04:38:55;;;;;;;24.38;9.63;;;;;;;;;;6224392;22;20051;-91
2022/04/06 04:41:23;;;;;;;26.58;10.90;;;;;;;;;;6223871;22;20400;-91
2022/04/06 04:44:01;;;;;;;33.17;12.45;;;;;;;;;;6226642;22;20030;-91
2022/04/06 04:46:32;;;;;;;26.88;11.43;;;;;;;;;;6226216;22;20028;-91
2022/04/06 04:49:00;;;;;;;29.67;12.27;;;;;;;;;;6224542;22;20016;-90
2022/04/06 04:51:28;;;;;;;30.38;12.77;;;;;;;;;;6223154;22;20519;-90
2022/04/06 04:54:26;;;;;;;28.85;13.68;;;;;;;;;;6225473;22;20077;-91
2022/04/06 04:57:02;;;;;;;26.52;13.65;;;;;;;;;;6250741;22;20042;-91
2022/04/06 04:59:29;;;;;;;39.03;13.75;;;;;;;;;;6250348;22;20023;-91
2022/04/06 05:01:57;;;;;;;32.63;12.85;;;;;;;;;;6225041;22;20015;-90
2022/04/06 05:04:25;;;;;;;39.67;15.65;;;;;;;;;;6236325;22;20026;-90
2022/04/06 05:06:53;;;;;;;29.17;14.20;;;;;;;;;;6235449;22;20026;-90
2022/04/06 05:09:21;;;;;;;38.95;16.23;;;;;;;;;;6259872;22;20023;-90
2022/04/06 05:11:49;;;;;;;35.70;15.48;;;;;;;;;;6198539;22;20020;-90
2022/04/06 05:14:17;;;;;;;39.97;15.68;;;;;;;;;;6261126;22;20035;-90
2022/04/06 05:16:47;;;;;;;47.88;17.85;;;;;;;;;;6236644;22;20019;-90
2022/04/06 05:19:15;;;;;;;34.75;17.88;;;;;;;;;;6225797;22;20353;-90
2022/04/06 05:21:43;;;;;;;40.03;16.95;;;;;;;;;;6226194;22;20015;-92
2022/04/06 05:24:11;;;;;;;36.38;17.38;;;;;;;;;;6226929;22;20034;-90
2022/04/06 05:27:06;;;;;;;41.25;15.10;;;;;;;;;;6224481;22;20035;-91
2022/04/06 05:29:34;;;;;;;37.22;16.92;;;;;;;;;;6224083;22;20019;-91
2022/04/06 05:32:02;;;;;;;42.63;16.95;;;;;;;;;;6249261;22;20078;-91
2022/04/06 05:34:30;;;;;;;37.60;17.00;;;;;;;;;;6228664;22;20028;-93
2022/04/06 05:37:50;;;;;;;40.67;17.85;;;;;;;;;;6188730;23;20020;-93
2022/04/06 05:40:18;;;;;;;41.60;18.75;;;;;;;;;;6139049;23;20028;-92
2022/04/06 05:42:46;;;;;;;37.60;16.58;;;;;;;;;;6162765;23;20816;-93
2022/04/06 05:45:14;;;;;;;41.45;17.45;;;;;;;;;;6167235;23;20020;-92
2022/04/06 05:47:45;;;;;;;39.33;17.98;;;;;;;;;;6164761;23;20020;-92
2022/04/06 05:50:14;;;;;;;42.45;16.95;;;;;;;;;;6175504;23;20030;-92
2022/04/06 05:52:42;;;;;;;34.60;14.60;;;;;;;;;;6164413;23;20031;-92
2022/04/06 05:55:09;;;;;;;42.33;16.20;;;;;;;;;;6166192;23;20099;-92
2022/04/06 05:57:38;;;;;;;30.23;15.60;;;;;;;;;;6162732;23;20055;-92
2022/04/06 06:00:07;;;;;;;34.03;14.90;;;;;;;;;;6162926;23;20119;-93
2022/04/06 06:07:21;;;;;;;31.38;13.93;;;;;;;;;;6237138;22;20081;-92
2022/04/06 06:09:49;;;;;;;32.10;14.18;;;;;;;;;;6226038;22;20024;-92
2022/04/06 06:12:18;;;;;;;35.35;14.15;;;;;;;;;;6226245;22;20078;-92
2022/04/06 06:14:56;;;;;;;32.90;13.88;;;;;;;;;;6228016;22;20051;-92
2022/04/06 06:17:28;;;;;;;32.47;12.30;;;;;;;;;;6250467;22;20452;-92
2022/04/06 06:19:55;;;;;;;32.15;13.63;;;;;;;;;;6224563;22;20816;-92
2022/04/06 06:22:23;;;;;;;27.23;11.55;;;;;;;;;;6249187;22;20016;-92
2022/04/06 06:24:59;;;;;;;29.15;11.68;;;;;;;;;;6226690;22;20083;-92
2022/04/06 06:27:27;;;;;;;30.50;11.77;;;;;;;;;;6224627;22;20027;-93
2022/04/06 06:29:55;;;;;;;32.42;11.00;;;;;;;;;;6224422;22;20028;-93
2022/04/06 06:32:23;;;;;;;24.42;11.70;;;;;;;;;;6197066;22;20042;-92
2022/04/06 06:34:58;;;;;;;23.70;11.13;;;;;;;;;;6262518;22;20436;-92
2022/04/06 06:37:27;;;;;;;28.02;9.82;;;;;;;;;;6224722;22;20106;-92
2022/04/06 06:39:56;;;;;;;22.73;9.77;;;;;;;;;;6200266;22;20031;-92
2022/04/06 06:42:40;;;;;;;28.23;10.57;;;;;;;;;;6223230;22;20026;-93
2022/04/06 07:01:36;;;;;;;27.83;10.32;;;;;;;;;;6275198;22;20016;-87
2022/04/06 07:04:03;;;;;;;29.20;10.00;;;;;;;;;;6256949;22;20038;-88
2022/04/06 07:06:31;;;;;;;28.55;10.23;;;;;;;;;;6256628;22;20023;-88
2022/04/06 07:08:59;;;;;;;23.10;9.73;;;;;;;;;;6246677;22;20024;-88
2022/04/06 07:11:27;;;;;;;24.20;10.45;;;;;;;;;;6256898;22;20098;-88
2022/04/06 07:13:55;;;;;;;20.15;9.45;;;;;;;;;;6257032;22;20019;-87
2022/04/06 07:16:24;;;;;;;27.75;9.90;;;;;;;;;;6257134;22;20019;-88
2022/04/06 07:18:53;;;;;;;23.45;9.60;;;;;;;;;;6232415;22;20022;-88
2022/04/06 07:21:21;;;;;;;26.55;10.68;;;;;;;;;;6232405;22;20051;-88
2022/04/06 07:23:49;;;;;;;22.33;10.23;;;;;;;;;;6258254;22;20070;-87
2022/04/06 07:26:21;;;;;;;23.08;10.60;;;;;;;;;;6222965;22;20031;-88
2022/04/06 07:28:49;;;;;;;22.02;9.85;;;;;;;;;;6198276;22;20027;-88
2022/04/06 07:31:17;;;;;;;25.70;10.77;;;;;;;;;;6284855;22;20050;-88
2022/04/06 07:33:45;;;;;;;29.35;11.65;;;;;;;;;;6258304;22;20039;-87
2022/04/06 07:36:13;;;;;;;23.17;11.68;;;;;;;;;;6284856;22;20593;-87
2022/04/06 07:38:41;;;;;;;18.88;9.80;;;;;;;;;;6285194;22;20030;-88
2022/04/06 07:41:09;;;;;;;19.52;9.73;;;;;;;;;;6233056;22;20024;-88
2022/04/06 07:43:37;;;;;;;22.52;10.68;;;;;;;;;;6285215;22;20067;-88
2022/04/06 07:46:05;;;;;;;27.88;10.70;;;;;;;;;;6259319;22;20023;-88
2022/04/06 07:48:33;;;;;;;20.75;10.23;;;;;;;;;;6248622;22;20019;-88
2022/04/06 07:51:01;;;;;;;23.73;10.57;;;;;;;;;;6285076;22;20024;-88
2022/04/06 07:53:29;;;;;;;23.23;10.52;;;;;;;;;;6222797;22;20024;-88
2022/04/06 07:55:57;;;;;;;25.73;10.95;;;;;;;;;;6284996;22;20027;-87
2022/04/06 07:58:25;;;;;;;22.25;10.05;;;;;;;;;;6258642;22;20050;-88
2022/04/06 08:00:53;;;;;;;25.63;10.77;;;;;;;;;;6285497;22;20597;-88
2022/04/06 08:03:21;;;;;;;26.70;11.00;;;;;;;;;;6221984;22;20043;-88
2022/04/06 08:05:50;;;;;;;23.65;10.05;;;;;;;;;;6223099;22;20035;-88
2022/04/06 08:08:17;;;;;;;24.77;10.65;;;;;;;;;;6222287;22;20023;-88
2022/04/06 08:10:46;;;;;;;20.17;10.98;;;;;;;;;;6258543;22;20751;-88
2022/04/06 08:13:13;;;;;;;23.88;11.57;;;;;;;;;;6257529;22;20090;-88
2022/04/06 08:15:41;;;;;;;24.67;10.90;;;;;;;;;;6285197;22;20016;-87
2022/04/06 08:18:11;;;;;;;22.63;11.60;;;;;;;;;;6257747;22;20377;-88
2022/04/06 08:20:40;;;;;;;24.50;10.70;;;;;;;;;;6285908;22;20043;-88
2022/04/06 08:23:07;;;;;;;27.15;10.77;;;;;;;;;;6257773;22;20046;-88
2022/04/06 08:25:36;;;;;;;28.33;11.52;;;;;;;;;;6227329;23;20020;-88
2022/04/06 08:28:07;;;;;;;20.15;9.73;;;;;;;;;;6281180;22;20015;-88
2022/04/06 08:30:39;;;;;;;32.08;11.35;;;;;;;;;;6258833;22;20094;-88
2022/04/06 08:33:08;;;;;;;25.25;11.40;;;;;;;;;;6284130;22;20082;-88
2022/04/06 08:35:36;;;;;;;25.20;11.45;;;;;;;;;;6198045;22;20020;-88
2022/04/06 08:38:03;;;;;;;19.52;10.50;;;;;;;;;;6283116;22;20027;-88
2022/04/06 08:40:32;;;;;;;24.77;11.70;;;;;;;;;;6258042;22;20019;-88
2022/04/06 08:43:00;;;;;;;23.13;12.00;;;;;;;;;;6247257;22;20052;-88
2022/04/06 08:45:28;;;;;;;22.00;11.52;;;;;;;;;;6247128;22;20023;-88
2022/04/06 08:47:59;;;;;;;22.77;11.30;;;;;;;;;;6284133;22;20019;-88
2022/04/06 08:50:29;;;;;;;23.45;10.43;;;;;;;;;;6222216;22;20038;-88
2022/04/06 08:52:59;;;;;;;21.00;10.25;;;;;;;;;;6257485;22;20090;-88
2022/04/06 08:55:29;;;;;;;20.30;10.48;;;;;;;;;;6257866;22;20115;-88
2022/04/06 08:57:58;;;;;;;20.27;10.48;;;;;;;;;;6257394;22;20030;-89
2022/04/06 09:00:26;;;;;;;19.83;9.30;;;;;;;;;;6222052;22;20026;-88
2022/04/06 09:02:53;;;;;;;21.70;10.75;;;;;;;;;;6221560;22;20015;-87
2022/04/06 09:05:25;;;;;;;22.85;10.90;;;;;;;;;;6283892;22;20023;-88
2022/04/06 09:07:54;;;;;;;23.27;10.30;;;;;;;;;;6246778;22;20069;-88
2022/04/06 09:10:36;;;;;;;16.67;9.45;;;;;;;;;;6284248;22;20019;-88
2022/04/06 09:13:20;;;;;;;22.52;9.82;;;;;;;;;;6283594;22;20012;-88
2022/04/06 09:15:53;;;;;;;23.27;9.85;;;;;;;;;;6283440;22;20046;-88
2022/04/06 09:18:34;;;;;;;23.02;8.93;;;;;;;;;;6283172;22;20026;-88
2022/04/06 09:21:02;;;;;;;16.98;8.65;;;;;;;;;;6283884;22;20696;-88
2022/04/06 09:23:33;;;;;;;18.25;8.60;;;;;;;;;;6246322;22;20082;-88
2022/04/06 09:26:07;;;;;;;18.70;9.05;;;;;;;;;;6257183;22;20046;-88
2022/04/06 09:28:46;;;;;;;17.20;8.10;;;;;;;;;;6246132;22;20074;-87
2022/04/06 09:31:17;;;;;;;17.00;8.95;;;;;;;;;;6274303;22;20320;-88
2022/04/06 09:33:56;;;;;;;14.32;7.47;;;;;;;;;;6257505;22;20008;-88
2022/04/06 09:36:26;;;;;;;16.42;7.43;;;;;;;;;;6257387;22;20011;-88
2022/04/06 09:38:54;;;;;;;16.30;8.05;;;;;;;;;;6246822;22;20024;-88
2022/04/06 09:41:21;;;;;;;20.05;7.65;;;;;;;;;;6245917;22;20066;-88
2022/04/06 09:43:53;;;;;;;19.13;8.95;;;;;;;;;;6246021;22;20062;-88
2022/04/06 09:49:20;;;;;;;17.00;8.63;;;;;;;;;;6283924;22;20054;-88
2022/04/06 09:51:50;;;;;;;17.25;9.30;;;;;;;;;;6284078;22;20332;-88
2022/04/06 09:54:18;;;;;;;18.20;8.63;;;;;;;;;;6256957;22;20020;-88
2022/04/06 09:56:46;;;;;;;20.70;8.23;;;;;;;;;;6256228;22;20012;-88
2022/04/06 09:59:14;;;;;;;15.18;8.30;;;;;;;;;;6283119;22;20668;-88
2022/04/06 10:01:44;;;;;;;15.13;7.88;;;;;;;;;;6282472;22;20078;-87
2022/04/06 10:04:19;;;;;;;17.30;9.45;;;;;;;;;;6284067;22;20763;-88
2022/04/06 10:06:48;;;;;;;18.92;8.18;;;;;;;;;;6232432;22;20046;-88
2022/04/06 10:09:15;;;;;;;13.88;7.53;;;;;;;;;;6256880;22;20569;-88
2022/04/06 10:11:43;;;;;;;15.60;7.57;;;;;;;;;;6196043;22;20057;-88
2022/04/06 10:14:11;;;;;;;12.55;6.72;;;;;;;;;;6283265;22;20019;-88
2022/04/06 10:16:39;;;;;;;19.83;8.38;;;;;;;;;;6282843;22;20015;-88
2022/04/06 10:19:13;;;;;;;15.90;8.70;;;;;;;;;;6256828;22;20066;-88
2022/04/06 10:21:55;;;;;;;14.55;7.50;;;;;;;;;;6282808;22;20526;-88
2022/04/06 10:24:46;;;;;;;13.38;7.72;;;;;;;;;;6282917;22;20485;-88
2022/04/06 10:27:27;;;;;;;13.82;7.55;;;;;;;;;;6282843;22;20073;-88
2022/04/06 10:30:05;;;;;;;15.15;7.32;;;;;;;;;;6283291;22;20019;-88
2022/04/06 10:32:35;;;;;;;11.88;7.38;;;;;;;;;;6282966;22;20023;-88
2022/04/06 10:35:19;;;;;;;14.15;7.03;;;;;;;;;;6256975;22;20074;-88
2022/04/06 10:37:56;;;;;;;14.90;7.28;;;;;;;;;;6256803;22;20023;-88
2022/04/06 10:40:31;;;;;;;13.32;6.90;;;;;;;;;;6245084;22;20019;-88
2022/04/06 10:42:59;;;;;;;11.20;7.25;;;;;;;;;;6245372;22;20027;-88
2022/04/06 10:45:28;;;;;;;20.25;9.27;;;;;;;;;;6283472;22;20026;-88
2022/04/06 10:48:12;;;;;;;15.75;8.65;;;;;;;;;;6255227;22;20406;-87
2022/04/06 10:50:42;;;;;;;18.60;9.48;;;;;;;;;;6246140;22;20085;-88
2022/04/06 10:53:18;;;;;;;16.13;8.85;;;;;;;;;;6283882;22;20051;-88
2022/04/06 10:56:16;;;;;;;13.30;8.63;;;;;;;;;;6283109;22;20096;-88
2022/04/06 10:58:55;;;;;;;13.43;8.35;;;;;;;;;;6230921;22;20030;-88
2022/04/06 11:01:29;;;;;;;22.83;9.60;;;;;;;;;;6282474;22;20020;-88
2022/04/06 11:04:06;;;;;;;16.58;8.70;;;;;;;;;;6283664;22;20070;-88
2022/04/06 11:06:53;;;;;;;15.00;8.80;;;;;;;;;;6283808;22;20043;-88
2022/04/06 11:12:23;;;;;;;17.10;9.55;;;;;;;;;;6245157;22;20027;-88
2022/04/06 11:14:57;;;;;;;20.50;9.05;;;;;;;;;;6283278;22;20442;-88
2022/04/06 11:17:34;;;;;;;17.50;9.52;;;;;;;;;;6245470;22;20042;-88
2022/04/06 11:20:05;;;;;;;14.70;8.77;;;;;;;;;;6256052;22;20035;-88
2022/04/06 11:22:38;;;;;;;18.77;8.38;;;;;;;;;;6231634;22;20024;-88
2022/04/06 11:25:07;;;;;;;17.00;8.32;;;;;;;;;;6283233;22;20410;-88
2022/04/06 11:27:37;;;;;;;15.15;7.65;;;;;;;;;;6256066;22;20024;-88
2022/04/06 11:30:12;;;;;;;12.90;7.43;;;;;;;;;;6283775;22;20023;-88
2022/04/06 11:32:58;;;;;;;12.57;7.47;;;;;;;;;;6281176;22;20027;-88
2022/04/06 11:35:34;;;;;;;12.18;7.38;;;;;;;;;;6283853;22;20020;-88
2022/04/06 11:38:06;;;;;;;11.88;7.18;;;;;;;;;;6283380;22;20040;-88
2022/04/06 11:40:37;;;;;;;13.82;7.20;;;;;;;;;;6284333;22;20027;-88
2022/04/06 11:43:05;;;;;;;16.38;7.15;;;;;;;;;;6259352;22;20355;-88
2022/04/06 11:45:40;;;;;;;15.48;7.28;;;;;;;;;;6307752;22;20011;-88
2022/04/06 11:48:11;;;;;;;14.48;7.40;;;;;;;;;;6308511;22;20023;-87
2022/04/06 11:50:40;;;;;;;14.50;7.03;;;;;;;;;;6309420;22;20039;-88
2022/04/06 11:53:18;;;;;;;11.13;6.68;;;;;;;;;;6279822;22;20007;-87
2022/04/06 11:55:49;;;;;;;16.42;7.60;;;;;;;;;;6279766;22;20016;-88
2022/04/06 11:58:37;;;;;;;14.80;7.10;;;;;;;;;;6291752;22;20023;-88
2022/04/06 12:01:05;;;;;;;17.83;7.30;;;;;;;;;;6274127;22;20026;-88
2022/04/06 12:03:35;;;;;;;16.20;7.43;;;;;;;;;;6283316;22;20044;-88
2022/04/06 12:06:07;;;;;;;15.70;7.32;;;;;;;;;;6283535;22;20627;-88
2022/04/06 12:08:34;;;;;;;14.90;6.70;;;;;;;;;;6258068;22;20023;-88
2022/04/06 12:11:02;;;;;;;14.65;6.75;;;;;;;;;;6286051;22;20012;-88
2022/04/06 12:13:35;;;;;;;18.23;7.75;;;;;;;;;;6259341;22;20019;-88
2022/04/06 12:16:04;;;;;;;16.30;6.82;;;;;;;;;;6261434;22;20439;-88
2022/04/06 12:18:32;;;;;;;14.10;6.43;;;;;;;;;;6261908;22;20074;-88
2022/04/06 12:21:00;;;;;;;13.27;6.65;;;;;;;;;;6291375;22;20390;-88
2022/04/06 12:23:29;;;;;;;15.48;7.60;;;;;;;;;;6289384;22;20027;-88
2022/04/06 12:26:08;;;;;;;14.68;7.50;;;;;;;;;;6289810;22;20006;-88
2022/04/06 12:28:35;;;;;;;13.55;6.85;;;;;;;;;;6314972;22;20003;-88
2022/04/06 12:31:05;;;;;;;14.45;6.97;;;;;;;;;;6314813;22;20003;-88
2022/04/06 12:33:46;;;;;;;16.45;7.40;;;;;;;;;;6314386;22;19999;-88
2022/04/06 12:36:26;;;;;;;13.93;7.18;;;;;;;;;;6311462;22;20055;-88
2022/04/06 12:39:13;;;;;;;18.40;8.10;;;;;;;;;;6251670;22;20020;-88
2022/04/06 12:41:55;;;;;;;18.17;7.05;;;;;;;;;;6257445;22;20022;-87
2022/04/06 12:44:23;;;;;;;17.33;8.38;;;;;;;;;;6258831;22;20686;-88
2022/04/06 12:46:52;;;;;;;13.32;7.68;;;;;;;;;;6257758;22;20023;-87
2022/04/06 12:49:22;;;;;;;17.50;8.10;;;;;;;;;;6284432;22;20743;-88
2022/04/06 12:52:04;;;;;;;14.93;7.60;;;;;;;;;;6284434;22;20070;-88
2022/04/06 12:54:33;;;;;;;14.77;7.57;;;;;;;;;;6284158;22;20015;-88
2022/04/06 12:57:24;;;;;;;15.15;7.85;;;;;;;;;;6221218;22;20102;-88
2022/04/06 12:59:58;;;;;;;19.15;7.40;;;;;;;;;;6284410;22;20015;-88
2022/04/06 13:02:25;;;;;;;17.98;7.20;;;;;;;;;;6256962;22;20090;-88
2022/04/06 13:05:13;;;;;;;14.30;7.32;;;;;;;;;;6284074;22;20451;-88
2022/04/06 13:07:43;;;;;;;12.80;6.43;;;;;;;;;;6256612;22;20074;-88
2022/04/06 13:10:13;;;;;;;17.38;6.88;;;;;;;;;;6223208;22;20077;-88
2022/04/06 13:12:47;;;;;;;14.30;6.95;;;;;;;;;;6284366;22;20023;-88
2022/04/06 13:15:16;;;;;;;20.38;6.93;;;;;;;;;;6232945;22;20038;-87
2022/04/06 13:17:46;;;;;;;14.65;7.03;;;;;;;;;;6255948;22;20069;-88
2022/04/06 13:20:17;;;;;;;15.45;6.80;;;;;;;;;;6284688;22;20018;-88
2022/04/06 13:22:46;;;;;;;13.55;6.10;;;;;;;;;;6232479;22;20046;-88
2022/04/06 13:25:15;;;;;;;12.23;6.43;;;;;;;;;;6284486;22;20065;-88
2022/04/06 13:27:44;;;;;;;10.25;5.72;;;;;;;;;;6283634;22;20044;-88
2022/04/06 13:30:16;;;;;;;14.43;6.70;;;;;;;;;;6258214;22;20023;-88
2022/04/06 13:32:45;;;;;;;13.00;5.70;;;;;;;;;;6283606;22;20015;-87
2022/04/06 13:35:15;;;;;;;14.07;6.47;;;;;;;;;;6246661;22;20015;-88
2022/04/06 13:37:43;;;;;;;8.43;5.53;;;;;;;;;;6246668;22;20050;-88
2022/04/06 13:40:13;;;;;;;12.57;6.40;;;;;;;;;;6285051;22;20023;-88
2022/04/06 13:42:41;;;;;;;15.68;6.35;;;;;;;;;;6284081;22;20108;-88
2022/04/06 13:45:09;;;;;;;8.70;5.68;;;;;;;;;;6284739;22;20419;-89
2022/04/06 13:47:37;;;;;;;10.18;5.85;;;;;;;;;;6283153;22;20103;-88
2022/04/06 13:50:09;;;;;;;13.48;6.07;;;;;;;;;;6257803;22;20447;-88
2022/04/06 13:52:39;;;;;;;11.05;6.07;;;;;;;;;;6284233;22;20020;-88
2022/04/06 13:55:09;;;;;;;13.25;5.82;;;;;;;;;;6256592;22;20442;-88
2022/04/06 13:57:38;;;;;;;13.68;6.22;;;;;;;;;;6283184;22;20094;-88
2022/04/06 14:00:06;;;;;;;10.30;6.25;;;;;;;;;;6282769;22;20012;-87
2022/04/06 14:02:40;;;;;;;10.70;6.13;;;;;;;;;;6257941;22;20128;-87
2022/04/06 14:05:07;;;;;;;11.50;5.82;;;;;;;;;;6283993;22;20339;-87
2022/04/06 14:07:35;;;;;;;10.32;5.65;;;;;;;;;;6284024;22;20039;-89
2022/04/06 14:10:05;;;;;;;13.02;6.15;;;;;;;;;;6284765;22;20098;-88
2022/04/06 14:12:33;;;;;;;9.35;4.90;;;;;;;;;;6284494;22;20070;-87
2022/04/06 14:15:02;;;;;;;9.57;5.70;;;;;;;;;;6257142;22;20020;-89
2022/04/06 14:17:29;;;;;;;8.88;5.30;;;;;;;;;;6245696;22;20034;-87
2022/04/06 14:19:58;;;;;;;10.27;6.20;;;;;;;;;;6284431;22;20102;-87
2022/04/06 14:22:25;;;;;;;12.60;5.45;;;;;;;;;;6283884;22;20343;-87
2022/04/06 14:27:39;;;;;;;;;;;;;;;;;;6246107;22;20025;-87
2022/04/06 14:30:08;;;;;;;13.73;5.82;;;;;;;;;;6245432;22;19919;-87
2022/04/06 14:32:35;;;;;;;8.18;5.30;;;;;;;;;;6218781;22;20699;-87
2022/04/06 14:35:05;;;;;;;11.27;5.72;;;;;;;;;;6273983;22;20019;-87
2022/04/06 14:37:31;;;;;;;11.20;5.43;;;;;;;;;;6256660;22;20526;-87
2022/04/06 14:39:59;;;;;;;13.02;6.00;;;;;;;;;;6257756;22;20853;-87
2022/04/06 14:42:27;;;;;;;12.57;5.97;;;;;;;;;;6233120;22;20078;-88
2022/04/06 14:44:55;;;;;;;10.60;5.13;;;;;;;;;;6256779;22;20465;-87
2022/04/06 14:47:25;;;;;;;10.20;5.70;;;;;;;;;;6283997;22;20019;-88
2022/04/06 14:49:53;;;;;;;10.63;5.90;;;;;;;;;;6256740;22;20016;-87
2022/04/06 14:52:21;;;;;;;7.78;5.00;;;;;;;;;;6246021;22;20023;-88
2022/04/06 14:54:49;;;;;;;10.68;5.35;;;;;;;;;;6283931;22;20026;-88
2022/04/06 14:57:17;;;;;;;9.73;4.85;;;;;;;;;;6284065;22;20098;-88
2022/04/06 14:59:45;;;;;;;10.50;5.57;;;;;;;;;;6256823;22;20019;-87
2022/04/06 15:02:13;;;;;;;10.90;5.28;;;;;;;;;;6283962;22;20019;-88
2022/04/06 15:04:42;;;;;;;9.23;5.88;;;;;;;;;;6283703;22;20012;-87
2022/04/06 15:07:09;;;;;;;10.02;5.57;;;;;;;;;;6246236;22;20015;-87
2022/04/06 15:09:37;;;;;;;10.85;5.45;;;;;;;;;;6283729;22;20498;-88
2022/04/06 15:12:05;;;;;;;10.30;5.47;;;;;;;;;;6257270;22;20026;-87
2022/04/06 15:14:35;;;;;;;12.13;6.13;;;;;;;;;;6283421;22;20016;-87
2022/04/06 15:17:03;;;;;;;9.73;5.93;;;;;;;;;;6284272;22;20071;-87
2022/04/06 15:19:32;;;;;;;13.50;6.00;;;;;;;;;;6282717;22;20028;-87
2022/04/06 15:22:00;;;;;;;11.63;6.38;;;;;;;;;;6282884;22;20019;-88
2022/04/06 15:24:28;;;;;;;9.30;5.75;;;;;;;;;;6220196;22;20023;-87